createdAt,value
2022-12-31T00:01:06.607Z,95.06
2022-12-31T00:03:29.233Z,95.09
2022-12-31T00:05:51.866Z,95.14
2022-12-31T00:08:16.216Z,95.34
2022-12-31T00:10:41.767Z,95.40
2022-12-31T00:13:04.556Z,95.49
2022-12-31T00:15:27.772Z,95.47
2022-12-31T00:17:50.482Z,95.48
2022-12-31T00:20:13.514Z,95.47
2022-12-31T00:22:36.248Z,95.40
2022-12-31T00:24:58.938Z,95.36
2022-12-31T00:27:22.496Z,95.33
2022-12-31T00:29:45.334Z,95.34
2022-12-31T00:32:07.946Z,95.35
2022-12-31T00:34:31.265Z,95.36
2022-12-31T00:36:53.957Z,95.51
2022-12-31T00:39:16.627Z,95.58
2022-12-31T00:41:39.570Z,95.49
2022-12-31T00:44:02.302Z,95.39
2022-12-31T00:46:25.399Z,95.41
2022-12-31T00:48:48.114Z,95.41
2022-12-31T00:51:14.009Z,95.46
2022-12-31T00:53:38.558Z,95.31
2022-12-31T00:56:06.777Z,95.24
2022-12-31T00:58:29.485Z,95.28
2022-12-31T01:00:52.128Z,95.27
2022-12-31T01:03:14.838Z,95.18
2022-12-31T01:05:37.974Z,95.07
2022-12-31T01:08:00.652Z,94.96
2022-12-31T01:10:42.761Z,95.08
2022-12-31T01:13:05.373Z,95.23
2022-12-31T01:15:27.976Z,95.29
2022-12-31T01:17:50.760Z,95.36
2022-12-31T01:20:13.426Z,95.37
2022-12-31T01:22:36.066Z,95.37
2022-12-31T01:24:58.808Z,95.38
2022-12-31T01:27:21.427Z,95.56
2022-12-31T01:29:44.171Z,95.69
2022-12-31T01:32:06.910Z,95.82
2022-12-31T01:34:29.475Z,95.87
2022-12-31T01:36:51.999Z,95.99
2022-12-31T01:39:14.546Z,95.94
2022-12-31T01:41:40.594Z,95.95
2022-12-31T01:44:26.102Z,95.88
2022-12-31T01:46:54.010Z,95.80
2022-12-31T01:49:24.025Z,95.69
2022-12-31T01:51:51.356Z,95.82
2022-12-31T01:54:18.379Z,95.95
2022-12-31T01:56:43.213Z,95.94
2022-12-31T01:59:10.159Z,95.92
2022-12-31T02:01:37.966Z,95.83
2022-12-31T02:04:06.574Z,95.86
2022-12-31T02:06:35.253Z,95.71
2022-12-31T02:08:58.390Z,95.77
2022-12-31T02:11:28.457Z,95.84
2022-12-31T02:13:58.135Z,95.91
2022-12-31T02:16:48.337Z,95.93
2022-12-31T02:19:39.090Z,96.02
2022-12-31T02:22:29.916Z,96.01
2022-12-31T02:25:15.007Z,95.91
2022-12-31T02:27:43.882Z,95.86
2022-12-31T02:30:16.845Z,95.79
2022-12-31T02:32:51.779Z,95.82
2022-12-31T02:35:27.418Z,95.78
2022-12-31T02:37:54.467Z,95.58
2022-12-31T02:40:20.176Z,95.57
2022-12-31T02:42:42.708Z,95.48
2022-12-31T02:45:05.872Z,95.53
2022-12-31T02:47:38.315Z,95.56
2022-12-31T02:50:19.897Z,95.52
2022-12-31T02:52:48.444Z,95.48
2022-12-31T02:55:31.996Z,95.49
2022-12-31T02:58:00.906Z,95.39
2022-12-31T03:00:42.890Z,95.40
2022-12-31T03:03:09.174Z,95.32
2022-12-31T03:05:44.646Z,95.31
2022-12-31T03:08:07.697Z,95.25
2022-12-31T03:10:30.292Z,95.29
2022-12-31T03:12:53.394Z,95.35
2022-12-31T03:15:24.929Z,95.37
2022-12-31T03:18:11.691Z,95.39
2022-12-31T03:21:05.380Z,95.45
2022-12-31T03:23:34.150Z,95.63
2022-12-31T03:25:57.642Z,95.65
2022-12-31T03:28:22.991Z,95.66
2022-12-31T03:30:48.747Z,95.77
2022-12-31T03:33:11.762Z,95.82
2022-12-31T03:35:36.454Z,95.82
2022-12-31T03:37:59.433Z,95.79
2022-12-31T03:40:23.480Z,95.69
2022-12-31T03:42:46.653Z,95.67
2022-12-31T03:45:10.088Z,95.75
2022-12-31T03:47:32.837Z,95.80
2022-12-31T03:49:57.747Z,95.81
2022-12-31T03:52:20.703Z,95.79
2022-12-31T03:54:43.283Z,95.79
2022-12-31T03:57:05.859Z,95.66
2022-12-31T03:59:28.797Z,95.47
2022-12-31T04:01:51.451Z,95.37
2022-12-31T04:04:14.021Z,95.45
2022-12-31T04:06:36.650Z,95.49
2022-12-31T04:08:59.311Z,95.53
2022-12-31T04:11:22.018Z,95.61
2022-12-31T04:13:44.631Z,95.64
2022-12-31T04:16:07.323Z,95.63
2022-12-31T04:18:30.009Z,95.59
2022-12-31T04:20:52.720Z,95.65
2022-12-31T04:23:15.376Z,95.77
2022-12-31T04:25:37.978Z,95.82
2022-12-31T04:28:00.767Z,95.95
2022-12-31T04:30:23.719Z,95.91
2022-12-31T04:32:46.220Z,96.04
2022-12-31T04:35:09.796Z,96.08
2022-12-31T04:37:32.428Z,96.15
2022-12-31T04:40:00.311Z,96.08
2022-12-31T04:42:27.186Z,96.03
2022-12-31T04:44:50.052Z,96.04
2022-12-31T04:47:12.638Z,95.96
2022-12-31T04:49:35.357Z,95.65
2022-12-31T04:51:58.032Z,95.34
2022-12-31T04:54:20.595Z,95.16
2022-12-31T04:56:43.479Z,95.13
2022-12-31T04:59:07.338Z,95.11
2022-12-31T05:01:30.250Z,94.88
2022-12-31T05:03:52.950Z,94.85
2022-12-31T05:06:21.070Z,95.03
2022-12-31T05:08:44.094Z,94.97
2022-12-31T05:11:06.734Z,94.84
2022-12-31T05:13:33.099Z,94.98
2022-12-31T05:15:56.531Z,95.03
2022-12-31T05:18:19.769Z,95.06
2022-12-31T05:20:42.678Z,95.19
2022-12-31T05:23:05.459Z,95.03
2022-12-31T05:25:28.197Z,94.99
2022-12-31T05:27:50.818Z,94.93
2022-12-31T05:30:13.785Z,94.76
2022-12-31T05:32:36.528Z,94.80
2022-12-31T05:34:59.884Z,94.78
2022-12-31T05:37:22.949Z,94.75
2022-12-31T05:39:45.580Z,94.85
2022-12-31T05:42:08.187Z,94.85
2022-12-31T05:44:31.045Z,94.38
2022-12-31T05:46:55.253Z,94.38
2022-12-31T05:49:18.159Z,94.57
2022-12-31T05:51:41.238Z,94.41
2022-12-31T05:54:04.336Z,94.02
2022-12-31T05:56:26.867Z,93.99
2022-12-31T05:58:49.838Z,94.06
2022-12-31T06:01:12.419Z,94.20
2022-12-31T06:03:35.495Z,94.29
2022-12-31T06:05:58.116Z,94.22
2022-12-31T06:08:20.717Z,94.16
2022-12-31T06:10:43.265Z,94.19
2022-12-31T06:13:06.327Z,93.86
2022-12-31T06:15:32.316Z,93.65
2022-12-31T06:17:55.079Z,94.10
2022-12-31T06:20:17.765Z,93.97
2022-12-31T06:22:40.611Z,93.72
2022-12-31T06:25:03.182Z,93.64
2022-12-31T06:27:25.870Z,93.61
2022-12-31T06:29:48.469Z,93.86
2022-12-31T06:32:11.837Z,93.80
2022-12-31T06:34:34.610Z,93.80
2022-12-31T06:36:57.966Z,93.02
2022-12-31T06:39:20.652Z,92.54
2022-12-31T06:41:43.279Z,91.65
2022-12-31T06:44:06.029Z,91.40
2022-12-31T06:46:28.839Z,91.23
2022-12-31T06:48:51.563Z,91.48
2022-12-31T06:51:17.801Z,91.21
2022-12-31T06:53:41.080Z,91.27
2022-12-31T06:56:15.590Z,91.02
2022-12-31T06:58:38.685Z,91.97
2022-12-31T07:02:00.072Z,92.77
2022-12-31T07:04:43.019Z,92.03
2022-12-31T07:07:14.353Z,92.53
2022-12-31T07:10:03.906Z,92.71
2022-12-31T07:12:32.336Z,92.85
2022-12-31T07:15:24.389Z,92.99
2022-12-31T07:18:03.486Z,93.41
2022-12-31T07:20:26.449Z,93.45
2022-12-31T07:22:49.506Z,93.26
2022-12-31T07:25:17.422Z,93.16
2022-12-31T07:27:59.173Z,93.17
2022-12-31T07:30:27.943Z,93.14
2022-12-31T07:33:13.350Z,93.34
2022-12-31T07:36:08.993Z,93.48
2022-12-31T07:38:55.092Z,93.89
2022-12-31T07:42:07.801Z,94.17
2022-12-31T07:45:03.105Z,94.09
2022-12-31T07:47:27.907Z,94.04
2022-12-31T07:49:51.305Z,93.88
2022-12-31T07:52:14.338Z,93.68
2022-12-31T07:54:36.869Z,93.59
2022-12-31T07:56:59.491Z,93.29
2022-12-31T07:59:49.676Z,92.86
2022-12-31T08:02:31.150Z,92.81
2022-12-31T08:05:21.143Z,92.32
2022-12-31T08:07:43.771Z,92.19
2022-12-31T08:10:18.708Z,92.00
2022-12-31T08:12:41.464Z,91.75
2022-12-31T08:15:12.976Z,90.83
2022-12-31T08:17:35.729Z,90.63
2022-12-31T08:19:59.129Z,90.64
2022-12-31T08:22:42.879Z,90.29
2022-12-31T08:25:15.406Z,89.63
2022-12-31T08:27:43.632Z,88.83
2022-12-31T08:30:10.186Z,89.78
2022-12-31T08:32:53.976Z,89.85
2022-12-31T08:35:41.321Z,89.43
2022-12-31T08:38:22.182Z,89.16
2022-12-31T08:41:14.606Z,88.91
2022-12-31T08:43:46.485Z,88.17
2022-12-31T08:46:21.011Z,88.64
2022-12-31T08:48:45.588Z,88.30
2022-12-31T08:51:25.391Z,89.06
2022-12-31T08:53:48.593Z,88.43
2022-12-31T08:56:29.103Z,88.05
2022-12-31T08:59:01.334Z,86.87
2022-12-31T09:01:30.630Z,86.08
2022-12-31T09:04:08.819Z,85.61
2022-12-31T09:06:41.962Z,84.68
2022-12-31T09:09:16.614Z,84.86
2022-12-31T09:11:57.402Z,84.35
2022-12-31T09:14:32.136Z,84.35
2022-12-31T09:17:24.079Z,84.86
2022-12-31T09:19:47.108Z,84.66
2022-12-31T09:22:11.093Z,83.91
2022-12-31T09:24:34.029Z,83.74
2022-12-31T09:27:09.641Z,85.44
2022-12-31T09:29:44.561Z,85.54
2022-12-31T09:32:40.084Z,86.88
2022-12-31T09:35:34.607Z,86.41
2022-12-31T09:38:52.509Z,88.62
2022-12-31T09:41:16.595Z,88.24
2022-12-31T09:43:44.885Z,88.60
2022-12-31T09:46:28.726Z,89.06
2022-12-31T09:49:16.450Z,88.65
2022-12-31T09:52:00.975Z,88.62
2022-12-31T09:54:54.094Z,88.33
2022-12-31T09:57:16.682Z,89.19
2022-12-31T09:59:58.414Z,88.75
2022-12-31T10:02:36.037Z,88.58
2022-12-31T10:05:53.117Z,87.90
2022-12-31T10:08:38.355Z,87.34
2022-12-31T10:11:19.347Z,86.58
2022-12-31T10:13:49.718Z,85.41
2022-12-31T10:16:42.565Z,85.06
2022-12-31T10:19:23.580Z,84.29
2022-12-31T10:22:21.125Z,83.73
2022-12-31T10:25:08.631Z,82.33
2022-12-31T10:27:48.044Z,82.41
2022-12-31T10:30:24.507Z,81.96
2022-12-31T10:32:53.091Z,81.74
2022-12-31T10:35:18.319Z,81.47
2022-12-31T10:37:52.533Z,81.64
2022-12-31T10:40:32.220Z,84.05
2022-12-31T10:43:06.735Z,84.27
2022-12-31T10:45:38.258Z,85.08
2022-12-31T10:48:44.602Z,85.45
2022-12-31T10:51:31.154Z,86.79
2022-12-31T10:54:05.785Z,86.09
2022-12-31T10:56:39.593Z,85.94
2022-12-31T10:59:20.870Z,86.48
2022-12-31T11:02:27.807Z,86.34
2022-12-31T11:05:12.765Z,86.54
2022-12-31T11:08:13.518Z,87.46
2022-12-31T11:10:49.087Z,87.08
2022-12-31T11:13:46.803Z,87.27
2022-12-31T11:16:24.245Z,86.67
2022-12-31T11:19:11.450Z,86.44
2022-12-31T11:21:37.885Z,86.17
2022-12-31T11:24:09.297Z,86.65
2022-12-31T11:26:58.960Z,85.59
2022-12-31T11:29:40.341Z,84.62
2022-12-31T11:32:08.933Z,84.06
2022-12-31T11:34:49.584Z,83.74
2022-12-31T11:37:36.913Z,83.30
2022-12-31T11:40:21.129Z,84.22
2022-12-31T11:42:52.258Z,83.73
2022-12-31T11:45:29.123Z,83.54
2022-12-31T11:48:31.989Z,83.70
2022-12-31T11:51:07.183Z,84.10
2022-12-31T11:53:57.734Z,84.35
2022-12-31T11:56:24.892Z,84.49
2022-12-31T11:58:52.692Z,85.04
2022-12-31T12:01:21.117Z,84.66
2022-12-31T12:03:45.340Z,84.88
2022-12-31T12:06:20.361Z,85.18
2022-12-31T12:08:44.349Z,85.77
2022-12-31T12:11:39.358Z,86.00
2022-12-31T12:14:02.152Z,85.44
2022-12-31T12:16:27.099Z,86.39
2022-12-31T12:19:07.158Z,85.18
2022-12-31T12:21:30.199Z,85.08
2022-12-31T12:24:03.438Z,85.17
2022-12-31T12:26:33.721Z,83.88
2022-12-31T12:29:08.087Z,82.89
2022-12-31T12:31:34.185Z,82.72
2022-12-31T12:33:56.832Z,81.92
2022-12-31T12:36:20.808Z,82.42
2022-12-31T12:38:44.013Z,82.34
2022-12-31T12:41:12.185Z,83.27
2022-12-31T12:43:37.305Z,83.31
2022-12-31T12:46:03.933Z,83.37
2022-12-31T12:48:41.898Z,84.37
2022-12-31T12:51:42.835Z,85.09
2022-12-31T12:54:48.484Z,85.38
2022-12-31T12:57:11.065Z,85.81
2022-12-31T12:59:52.726Z,85.97
2022-12-31T13:02:15.405Z,86.11
2022-12-31T13:05:00.053Z,86.06
2022-12-31T13:07:29.264Z,85.81
2022-12-31T13:10:11.880Z,86.10
2022-12-31T13:13:22.864Z,86.38
2022-12-31T13:15:35.828Z,86.81
2022-12-31T13:18:16.226Z,87.07
2022-12-31T13:21:00.239Z,87.19
2022-12-31T13:23:28.935Z,86.47
2022-12-31T13:26:10.522Z,85.99
2022-12-31T13:28:35.571Z,86.05
2022-12-31T13:31:08.068Z,86.48
2022-12-31T13:33:39.373Z,86.69
2022-12-31T13:36:08.914Z,86.41
2022-12-31T13:38:44.754Z,86.22
2022-12-31T13:41:19.242Z,85.99
2022-12-31T13:44:02.450Z,85.73
2022-12-31T13:46:52.447Z,85.78
2022-12-31T13:49:25.105Z,85.53
2022-12-31T13:51:53.954Z,86.27
2022-12-31T13:54:24.697Z,86.75
2022-12-31T13:56:49.934Z,86.83
2022-12-31T13:59:17.073Z,86.77
2022-12-31T14:02:06.011Z,87.07
2022-12-31T14:04:56.495Z,87.34
2022-12-31T14:07:26.696Z,87.19
2022-12-31T14:09:53.408Z,87.19
2022-12-31T14:12:50.296Z,86.91
2022-12-31T14:15:36.056Z,87.17
2022-12-31T14:18:29.281Z,86.97
2022-12-31T14:21:33.328Z,86.20
2022-12-31T14:24:30.699Z,86.35
2022-12-31T14:26:58.370Z,86.48
2022-12-31T14:29:23.978Z,87.18
2022-12-31T14:31:49.503Z,87.09
2022-12-31T14:34:30.235Z,87.12
2022-12-31T14:37:15.962Z,87.80
2022-12-31T14:39:57.018Z,88.04
2022-12-31T14:42:29.992Z,88.59
2022-12-31T14:44:55.250Z,88.71
2022-12-31T14:47:23.431Z,88.58
2022-12-31T14:50:04.311Z,88.44
2022-12-31T14:52:53.990Z,88.42
2022-12-31T14:55:30.117Z,88.01
2022-12-31T14:58:26.547Z,88.33
2022-12-31T15:00:56.250Z,88.85
2022-12-31T15:03:33.762Z,88.70
2022-12-31T15:06:08.886Z,87.99
2022-12-31T15:08:50.072Z,88.09
2022-12-31T15:11:38.988Z,88.32
2022-12-31T15:14:38.862Z,88.07
2022-12-31T15:17:18.473Z,88.11
2022-12-31T15:20:17.462Z,88.13
2022-12-31T15:22:45.203Z,88.24
2022-12-31T15:25:27.581Z,87.36
2022-12-31T15:27:50.762Z,87.12
2022-12-31T15:30:49.751Z,87.53
2022-12-31T15:33:27.324Z,87.70
2022-12-31T15:35:52.869Z,86.58
2022-12-31T15:38:15.438Z,86.14
2022-12-31T15:41:19.228Z,85.99
2022-12-31T15:43:52.879Z,85.47
2022-12-31T15:46:25.753Z,85.59
2022-12-31T15:49:02.025Z,85.60
2022-12-31T15:51:43.794Z,85.29
2022-12-31T15:54:16.293Z,85.42
2022-12-31T15:56:47.299Z,85.58
2022-12-31T15:59:16.960Z,85.63
2022-12-31T16:01:42.559Z,85.68
2022-12-31T16:04:12.748Z,85.78
2022-12-31T16:06:39.194Z,85.34
2022-12-31T16:09:01.958Z,85.52
2022-12-31T16:11:25.357Z,85.61
2022-12-31T16:13:50.965Z,85.65
2022-12-31T16:16:31.960Z,85.75
2022-12-31T16:18:57.317Z,85.87
2022-12-31T16:21:29.970Z,85.98
2022-12-31T16:23:54.916Z,86.24
2022-12-31T16:26:17.685Z,86.29
2022-12-31T16:28:40.347Z,85.98
2022-12-31T16:31:06.807Z,86.32
2022-12-31T16:33:30.880Z,86.56
2022-12-31T16:35:58.105Z,86.96
2022-12-31T16:38:20.771Z,87.38
2022-12-31T16:41:03.536Z,87.45
2022-12-31T16:43:29.429Z,87.75
2022-12-31T16:45:52.516Z,87.94
2022-12-31T16:48:19.810Z,88.10
2022-12-31T16:50:47.335Z,88.42
2022-12-31T16:53:17.482Z,88.23
2022-12-31T16:55:40.893Z,88.42
2022-12-31T16:58:21.332Z,88.77
2022-12-31T17:00:44.627Z,88.74
2022-12-31T17:03:17.450Z,88.98
2022-12-31T17:06:06.673Z,89.02
2022-12-31T17:08:43.975Z,89.48
2022-12-31T17:11:23.162Z,90.10
2022-12-31T17:13:54.128Z,89.66
2022-12-31T17:16:18.022Z,89.30
2022-12-31T17:18:44.320Z,89.59
2022-12-31T17:21:11.367Z,89.79
2022-12-31T17:23:36.645Z,89.62
2022-12-31T17:26:02.776Z,89.39
2022-12-31T17:28:26.586Z,89.11
2022-12-31T17:30:49.804Z,88.87
2022-12-31T17:33:12.468Z,88.94
2022-12-31T17:35:37.666Z,89.72
2022-12-31T17:38:18.572Z,89.52
2022-12-31T17:40:50.911Z,89.24
2022-12-31T17:43:14.872Z,88.62
2022-12-31T17:45:38.779Z,88.14
2022-12-31T17:48:01.682Z,88.27
2022-12-31T17:50:28.009Z,88.23
2022-12-31T17:52:52.474Z,88.15
2022-12-31T17:55:15.166Z,88.14
2022-12-31T17:57:41.072Z,88.42
2022-12-31T18:00:07.628Z,87.84
2022-12-31T18:02:35.263Z,88.07
2022-12-31T18:04:57.842Z,87.72
2022-12-31T18:07:20.617Z,88.13
2022-12-31T18:09:43.269Z,88.61
2022-12-31T18:12:06.999Z,89.05
2022-12-31T18:14:29.558Z,88.96
2022-12-31T18:16:52.170Z,88.45
2022-12-31T18:19:37.704Z,88.15
2022-12-31T18:22:00.789Z,88.34
2022-12-31T18:24:26.153Z,89.06
2022-12-31T18:26:48.893Z,89.88
2022-12-31T18:29:17.296Z,91.17
2022-12-31T18:31:40.245Z,92.08
2022-12-31T18:34:02.850Z,92.32
2022-12-31T18:36:28.783Z,92.65
2022-12-31T18:38:51.514Z,92.84
2022-12-31T18:41:20.149Z,92.88
2022-12-31T18:43:42.785Z,92.53
2022-12-31T18:46:05.590Z,92.62
2022-12-31T18:48:29.039Z,92.74
2022-12-31T18:50:51.808Z,92.93
2022-12-31T18:53:23.888Z,92.85
2022-12-31T18:55:50.032Z,93.17
2022-12-31T18:58:12.710Z,93.43
2022-12-31T19:00:35.649Z,93.53
2022-12-31T19:02:58.399Z,93.32
2022-12-31T19:05:22.802Z,93.10
2022-12-31T19:07:45.625Z,93.11
2022-12-31T19:10:12.760Z,92.96
2022-12-31T19:12:35.517Z,92.75
2022-12-31T19:14:58.568Z,92.84
2022-12-31T19:17:21.742Z,92.82
2022-12-31T19:19:44.637Z,92.52
2022-12-31T19:22:13.538Z,91.94
2022-12-31T19:24:36.059Z,91.52
2022-12-31T19:27:01.498Z,91.66
2022-12-31T19:29:26.976Z,91.66
2022-12-31T19:31:50.079Z,91.41
2022-12-31T19:34:13.034Z,91.22
2022-12-31T19:36:41.836Z,90.96
2022-12-31T19:39:07.459Z,91.25
2022-12-31T19:41:30.354Z,91.28
2022-12-31T19:43:53.281Z,91.37
2022-12-31T19:46:18.344Z,91.25
2022-12-31T19:48:41.246Z,91.38
2022-12-31T19:51:09.198Z,91.37
2022-12-31T19:53:31.878Z,91.49
2022-12-31T19:55:54.580Z,91.43
2022-12-31T19:58:25.694Z,91.65
2022-12-31T20:00:55.592Z,91.50
2022-12-31T20:03:21.373Z,91.45
2022-12-31T20:05:45.719Z,91.35
2022-12-31T20:08:08.522Z,91.47
2022-12-31T20:10:31.470Z,91.34
2022-12-31T20:12:54.507Z,91.81
2022-12-31T20:15:17.264Z,92.80
2022-12-31T20:17:40.017Z,93.27
2022-12-31T20:20:02.878Z,93.23
2022-12-31T20:22:27.041Z,93.12
2022-12-31T20:24:49.682Z,93.21
2022-12-31T20:27:18.130Z,92.92
2022-12-31T20:29:41.249Z,92.93
2022-12-31T20:32:04.216Z,92.90
2022-12-31T20:34:27.918Z,92.92
2022-12-31T20:36:50.623Z,92.68
2022-12-31T20:39:13.323Z,92.45
2022-12-31T20:41:36.073Z,92.34
2022-12-31T20:43:59.793Z,92.33
2022-12-31T20:46:25.124Z,92.59
2022-12-31T20:48:49.460Z,92.55
2022-12-31T20:51:13.751Z,92.29
2022-12-31T20:53:36.631Z,92.38
2022-12-31T20:56:07.043Z,92.70
2022-12-31T20:58:30.094Z,92.92
2022-12-31T21:00:53.091Z,93.37
2022-12-31T21:03:53.814Z,93.77
2022-12-31T21:05:58.303Z,93.97
2022-12-31T21:08:21.401Z,94.13
2022-12-31T21:10:44.637Z,94.23
2022-12-31T21:13:07.383Z,94.34
2022-12-31T21:15:30.148Z,94.55
2022-12-31T21:17:53.073Z,94.46
2022-12-31T21:20:15.990Z,94.46
2022-12-31T21:22:38.944Z,94.57
2022-12-31T21:25:02.635Z,94.38
2022-12-31T21:27:25.549Z,93.91
2022-12-31T21:30:17.107Z,93.60
2022-12-31T21:32:32.275Z,93.48
2022-12-31T21:35:31.186Z,93.46
2022-12-31T21:37:58.563Z,94.04
2022-12-31T21:40:20.277Z,94.16
2022-12-31T21:42:42.943Z,94.19
2022-12-31T21:45:06.432Z,94.27
2022-12-31T21:47:47.964Z,94.15
2022-12-31T21:50:10.788Z,94.11
2022-12-31T21:52:36.696Z,93.70
2022-12-31T21:55:20.775Z,93.33
2022-12-31T21:58:15.590Z,92.85
2022-12-31T22:00:46.798Z,92.80
2022-12-31T22:03:24.623Z,92.49
2022-12-31T22:05:57.251Z,92.26
2022-12-31T22:08:21.204Z,92.30
2022-12-31T22:10:51.956Z,92.39
2022-12-31T22:13:15.789Z,92.86
2022-12-31T22:15:41.582Z,93.27
2022-12-31T22:18:04.334Z,93.65
2022-12-31T22:20:28.204Z,93.49
2022-12-31T22:22:51.684Z,93.11
2022-12-31T22:25:14.247Z,92.89
2022-12-31T22:27:36.940Z,92.66
2022-12-31T22:29:59.515Z,92.95
2022-12-31T22:32:22.156Z,93.54
2022-12-31T22:34:45.299Z,94.00
2022-12-31T22:37:27.428Z,94.15
2022-12-31T22:39:52.560Z,94.49
2022-12-31T22:42:15.154Z,94.67
2022-12-31T22:44:37.799Z,94.07
2022-12-31T22:47:00.495Z,94.20
2022-12-31T22:49:23.308Z,94.20
2022-12-31T22:51:57.699Z,94.33
2022-12-31T22:54:21.574Z,94.90
2022-12-31T22:56:44.216Z,95.22
2022-12-31T22:59:07.133Z,95.43
2022-12-31T23:01:29.820Z,95.57
2022-12-31T23:03:55.010Z,95.69
2022-12-31T23:06:18.989Z,95.54
2022-12-31T23:08:42.161Z,95.22
2022-12-31T23:11:09.777Z,94.96
2022-12-31T23:13:57.276Z,94.89
2022-12-31T23:16:38.753Z,95.01
2022-12-31T23:19:20.378Z,95.42
2022-12-31T23:22:01.897Z,95.62
2022-12-31T23:24:27.605Z,95.87
2022-12-31T23:26:50.246Z,96.06
2022-12-31T23:29:13.311Z,96.22
2022-12-31T23:31:37.309Z,96.25
2022-12-31T23:34:00.136Z,96.30
2022-12-31T23:36:22.819Z,96.40
2022-12-31T23:38:45.400Z,96.50
2022-12-31T23:41:15.832Z,96.53
2022-12-31T23:43:38.407Z,96.59
2022-12-31T23:46:00.978Z,96.53
2022-12-31T23:48:23.606Z,96.47
2022-12-31T23:50:52.994Z,96.53
2022-12-31T23:53:16.780Z,96.53
2022-12-31T23:55:39.368Z,96.56
2022-12-31T23:58:02.310Z,96.56
